sensor_id;sensor_type;location;lat;lon;timestamp;temperature;humidity
8780;DHT22;62328;51.19929245;4.42130175;2022-10-16T00:00:46;14.70;99.90
8780;DHT22;62328;51.19929245;4.42130175;2022-10-16T00:03:13;14.70;99.90
8780;DHT22;62328;51.19929245;4.42130175;2022-10-16T00:05:42;14.70;99.90
8780;DHT22;62328;51.19929245;4.42130175;2022-10-16T00:08:11;14.70;99.90
8780;DHT22;62328;51.19929245;4.42130175;2022-10-16T00:10:39;14.70;99.90
8780;DHT22;62328;51.19929245;4.42130175;2022-10-16T00:13:06;14.70;99.90
8780;DHT22;62328;51.19929245;4.42130175;2022-10-16T00:15:36;14.70;99.90
8780;DHT22;62328;51.19929245;4.42130175;2022-10-16T00:18:05;14.70;99.90
8780;DHT22;62328;51.19929245;4.42130175;2022-10-16T00:20:34;14.70;99.90
8780;DHT22;62328;51.19929245;4.42130175;2022-10-16T00:23:03;14.70;99.90
8780;DHT22;62328;51.19929245;4.42130175;2022-10-16T00:25:30;14.80;99.90
8780;DHT22;62328;51.19929245;4.42130175;2022-10-16T00:27:59;14.80;99.90
8780;DHT22;62328;51.19929245;4.42130175;2022-10-16T00:30:26;14.70;99.90
8780;DHT22;62328;51.19929245;4.42130175;2022-10-16T00:32:54;14.70;99.90
8780;DHT22;62328;51.19929245;4.42130175;2022-10-16T00:35:21;14.70;99.90
8780;DHT22;62328;51.19929245;4.42130175;2022-10-16T00:37:48;14.70;99.90
8780;DHT22;62328;51.19929245;4.42130175;2022-10-16T00:40:15;14.70;99.90
8780;DHT22;62328;51.19929245;4.42130175;2022-10-16T00:42:42;14.70;99.90
8780;DHT22;62328;51.19929245;4.42130175;2022-10-16T00:45:10;14.70;99.90
8780;DHT22;62328;51.19929245;4.42130175;2022-10-16T00:47:39;14.60;99.90
8780;DHT22;62328;51.19929245;4.42130175;2022-10-16T00:50:11;14.70;99.90
8780;DHT22;62328;51.19929245;4.42130175;2022-10-16T00:52:43;14.60;99.90
8780;DHT22;62328;51.19929245;4.42130175;2022-10-16T00:55:11;14.60;99.90
8780;DHT22;62328;51.19929245;4.42130175;2022-10-16T00:57:39;14.60;99.90
8780;DHT22;62328;51.19929245;4.42130175;2022-10-16T01:00:08;14.60;99.90
8780;DHT22;62328;51.19929245;4.42130175;2022-10-16T01:02:36;14.60;99.90
8780;DHT22;62328;51.19929245;4.42130175;2022-10-16T01:05:03;14.50;99.90
8780;DHT22;62328;51.19929245;4.42130175;2022-10-16T01:07:40;14.50;99.90
8780;DHT22;62328;51.19929245;4.42130175;2022-10-16T01:10:17;14.50;99.90
8780;DHT22;62328;51.19929245;4.42130175;2022-10-16T01:12:51;14.60;99.90
8780;DHT22;62328;51.19929245;4.42130175;2022-10-16T01:15:25;14.50;99.90
8780;DHT22;62328;51.19929245;4.42130175;2022-10-16T01:17:57;14.50;99.90
8780;DHT22;62328;51.19929245;4.42130175;2022-10-16T01:20:29;14.50;99.90
8780;DHT22;62328;51.19929245;4.42130175;2022-10-16T01:23:05;14.50;99.90
8780;DHT22;62328;51.19929245;4.42130175;2022-10-16T01:26:20;14.50;99.90
8780;DHT22;62328;51.19929245;4.42130175;2022-10-16T01:28:56;14.40;99.90
8780;DHT22;62328;51.19929245;4.42130175;2022-10-16T01:31:26;14.40;99.90
8780;DHT22;62328;51.19929245;4.42130175;2022-10-16T01:33:58;14.40;99.90
8780;DHT22;62328;51.19929245;4.42130175;2022-10-16T01:36:31;14.40;99.90
8780;DHT22;62328;51.19929245;4.42130175;2022-10-16T01:39:01;14.40;99.90
8780;DHT22;62328;51.19929245;4.42130175;2022-10-16T01:41:32;14.40;99.90
8780;DHT22;62328;51.19929245;4.42130175;2022-10-16T01:44:04;14.40;99.90
8780;DHT22;62328;51.19929245;4.42130175;2022-10-16T01:46:36;14.40;99.90
8780;DHT22;62328;51.19929245;4.42130175;2022-10-16T01:49:05;14.30;99.90
8780;DHT22;62328;51.19929245;4.42130175;2022-10-16T01:51:34;14.30;99.90
8780;DHT22;62328;51.19929245;4.42130175;2022-10-16T01:54:02;14.30;99.90
8780;DHT22;62328;51.19929245;4.42130175;2022-10-16T01:56:30;14.30;99.90
8780;DHT22;62328;51.19929245;4.42130175;2022-10-16T01:59:03;14.20;99.90
8780;DHT22;62328;51.19929245;4.42130175;2022-10-16T02:01:32;14.30;99.90
8780;DHT22;62328;51.19929245;4.42130175;2022-10-16T02:04:04;14.30;99.90
8780;DHT22;62328;51.19929245;4.42130175;2022-10-16T02:06:34;14.30;99.90
8780;DHT22;62328;51.19929245;4.42130175;2022-10-16T02:09:01;14.30;99.90
8780;DHT22;62328;51.19929245;4.42130175;2022-10-16T02:11:28;14.30;99.90
8780;DHT22;62328;51.19929245;4.42130175;2022-10-16T02:13:58;14.30;99.90
8780;DHT22;62328;51.19929245;4.42130175;2022-10-16T02:16:35;14.20;99.90
8780;DHT22;62328;51.19929245;4.42130175;2022-10-16T02:19:03;14.20;99.90
8780;DHT22;62328;51.19929245;4.42130175;2022-10-16T02:21:34;14.20;99.90
8780;DHT22;62328;51.19929245;4.42130175;2022-10-16T02:24:11;14.20;99.90
8780;DHT22;62328;51.19929245;4.42130175;2022-10-16T02:26:48;14.10;99.90
8780;DHT22;62328;51.19929245;4.42130175;2022-10-16T02:29:19;14.10;99.90
8780;DHT22;62328;51.19929245;4.42130175;2022-10-16T02:31:52;14.10;99.90
8780;DHT22;62328;51.19929245;4.42130175;2022-10-16T02:34:21;14.10;99.90
8780;DHT22;62328;51.19929245;4.42130175;2022-10-16T02:36:50;14.10;99.90
8780;DHT22;62328;51.19929245;4.42130175;2022-10-16T02:39:19;14.10;99.90
8780;DHT22;62328;51.19929245;4.42130175;2022-10-16T02:41:47;14.10;99.90
8780;DHT22;62328;51.19929245;4.42130175;2022-10-16T02:44:14;14.10;99.90
8780;DHT22;62328;51.19929245;4.42130175;2022-10-16T02:46:41;14.10;99.90
8780;DHT22;62328;51.19929245;4.42130175;2022-10-16T02:49:09;14.10;99.90
8780;DHT22;62328;51.19929245;4.42130175;2022-10-16T02:51:36;14.00;99.90
8780;DHT22;62328;51.19929245;4.42130175;2022-10-16T02:54:03;14.10;99.90
8780;DHT22;62328;51.19929245;4.42130175;2022-10-16T02:56:30;14.10;99.90
8780;DHT22;62328;51.19929245;4.42130175;2022-10-16T02:58:57;14.10;99.90
8780;DHT22;62328;51.19929245;4.42130175;2022-10-16T03:01:24;14.10;99.90
8780;DHT22;62328;51.19929245;4.42130175;2022-10-16T03:03:50;14.00;99.90
8780;DHT22;62328;51.19929245;4.42130175;2022-10-16T03:06:19;14.00;99.90
8780;DHT22;62328;51.19929245;4.42130175;2022-10-16T03:08:45;14.10;99.90
8780;DHT22;62328;51.19929245;4.42130175;2022-10-16T03:11:12;14.10;99.90
8780;DHT22;62328;51.19929245;4.42130175;2022-10-16T03:13:39;14.10;99.90
8780;DHT22;62328;51.19929245;4.42130175;2022-10-16T03:16:06;14.10;99.90
8780;DHT22;62328;51.19929245;4.42130175;2022-10-16T03:18:33;14.10;99.90
8780;DHT22;62328;51.19929245;4.42130175;2022-10-16T03:21:00;14.10;99.90
8780;DHT22;62328;51.19929245;4.42130175;2022-10-16T03:23:28;14.10;99.90
8780;DHT22;62328;51.19929245;4.42130175;2022-10-16T03:25:55;14.10;99.90
8780;DHT22;62328;51.19929245;4.42130175;2022-10-16T03:28:22;14.10;99.90
8780;DHT22;62328;51.19929245;4.42130175;2022-10-16T03:30:49;14.10;99.90
8780;DHT22;62328;51.19929245;4.42130175;2022-10-16T03:33:16;14.00;99.90
8780;DHT22;62328;51.19929245;4.42130175;2022-10-16T03:35:42;14.10;99.90
8780;DHT22;62328;51.19929245;4.42130175;2022-10-16T03:38:09;14.10;99.90
8780;DHT22;62328;51.19929245;4.42130175;2022-10-16T03:40:37;14.00;99.90
8780;DHT22;62328;51.19929245;4.42130175;2022-10-16T03:43:04;14.00;99.90
8780;DHT22;62328;51.19929245;4.42130175;2022-10-16T03:45:31;14.00;99.90
8780;DHT22;62328;51.19929245;4.42130175;2022-10-16T03:47:58;13.90;99.90
8780;DHT22;62328;51.19929245;4.42130175;2022-10-16T03:50:25;14.10;99.90
8780;DHT22;62328;51.19929245;4.42130175;2022-10-16T03:52:52;14.00;99.90
8780;DHT22;62328;51.19929245;4.42130175;2022-10-16T03:55:19;14.00;99.90
8780;DHT22;62328;51.19929245;4.42130175;2022-10-16T03:57:49;14.00;99.90
8780;DHT22;62328;51.19929245;4.42130175;2022-10-16T04:00:16;14.10;99.90
8780;DHT22;62328;51.19929245;4.42130175;2022-10-16T04:02:43;14.10;99.90
8780;DHT22;62328;51.19929245;4.42130175;2022-10-16T04:05:10;14.20;99.90
8780;DHT22;62328;51.19929245;4.42130175;2022-10-16T04:07:36;14.10;99.90
8780;DHT22;62328;51.19929245;4.42130175;2022-10-16T04:10:04;14.10;99.90
8780;DHT22;62328;51.19929245;4.42130175;2022-10-16T04:12:31;14.10;99.90
8780;DHT22;62328;51.19929245;4.42130175;2022-10-16T04:14:59;14.00;99.90
8780;DHT22;62328;51.19929245;4.42130175;2022-10-16T04:17:26;14.00;99.90
8780;DHT22;62328;51.19929245;4.42130175;2022-10-16T04:19:53;14.10;99.90
8780;DHT22;62328;51.19929245;4.42130175;2022-10-16T04:22:20;14.10;99.90
8780;DHT22;62328;51.19929245;4.42130175;2022-10-16T04:24:47;14.00;99.90
8780;DHT22;62328;51.19929245;4.42130175;2022-10-16T04:27:13;14.00;99.90
8780;DHT22;62328;51.19929245;4.42130175;2022-10-16T04:29:40;14.00;99.90
8780;DHT22;62328;51.19929245;4.42130175;2022-10-16T04:32:09;14.00;99.90
8780;DHT22;62328;51.19929245;4.42130175;2022-10-16T04:34:36;14.00;99.90
8780;DHT22;62328;51.19929245;4.42130175;2022-10-16T04:37:03;14.00;99.90
8780;DHT22;62328;51.19929245;4.42130175;2022-10-16T04:39:30;14.00;99.90
8780;DHT22;62328;51.19929245;4.42130175;2022-10-16T04:41:57;14.00;99.90
8780;DHT22;62328;51.19929245;4.42130175;2022-10-16T04:44:24;14.00;99.90
8780;DHT22;62328;51.19929245;4.42130175;2022-10-16T04:46:51;14.00;99.90
8780;DHT22;62328;51.19929245;4.42130175;2022-10-16T04:49:19;14.00;99.90
8780;DHT22;62328;51.19929245;4.42130175;2022-10-16T04:51:46;14.00;99.90
8780;DHT22;62328;51.19929245;4.42130175;2022-10-16T04:54:13;14.00;99.90
8780;DHT22;62328;51.19929245;4.42130175;2022-10-16T04:56:39;14.00;99.90
8780;DHT22;62328;51.19929245;4.42130175;2022-10-16T04:59:12;14.00;99.90
8780;DHT22;62328;51.19929245;4.42130175;2022-10-16T05:01:39;14.00;99.90
8780;DHT22;62328;51.19929245;4.42130175;2022-10-16T05:04:06;13.90;99.90
8780;DHT22;62328;51.19929245;4.42130175;2022-10-16T05:06:34;13.90;99.90
8780;DHT22;62328;51.19929245;4.42130175;2022-10-16T05:09:01;13.90;99.90
8780;DHT22;62328;51.19929245;4.42130175;2022-10-16T05:11:28;13.90;99.90
8780;DHT22;62328;51.19929245;4.42130175;2022-10-16T05:13:55;13.90;99.90
8780;DHT22;62328;51.19929245;4.42130175;2022-10-16T05:16:21;13.90;99.90
8780;DHT22;62328;51.19929245;4.42130175;2022-10-16T05:18:51;13.90;99.90
8780;DHT22;62328;51.19929245;4.42130175;2022-10-16T05:21:20;13.80;99.90
8780;DHT22;62328;51.19929245;4.42130175;2022-10-16T05:23:48;13.90;99.90
8780;DHT22;62328;51.19929245;4.42130175;2022-10-16T05:26:15;13.90;99.90
8780;DHT22;62328;51.19929245;4.42130175;2022-10-16T05:28:42;13.80;99.90
8780;DHT22;62328;51.19929245;4.42130175;2022-10-16T05:31:10;13.80;99.90
8780;DHT22;62328;51.19929245;4.42130175;2022-10-16T05:33:37;13.80;99.90
8780;DHT22;62328;51.19929245;4.42130175;2022-10-16T05:36:05;13.80;99.90
8780;DHT22;62328;51.19929245;4.42130175;2022-10-16T05:38:34;13.80;99.90
8780;DHT22;62328;51.19929245;4.42130175;2022-10-16T05:41:02;13.80;99.90
8780;DHT22;62328;51.19929245;4.42130175;2022-10-16T05:43:30;13.80;99.90
8780;DHT22;62328;51.19929245;4.42130175;2022-10-16T05:45:58;13.80;99.90
8780;DHT22;62328;51.19929245;4.42130175;2022-10-16T05:48:26;13.70;99.90
8780;DHT22;62328;51.19929245;4.42130175;2022-10-16T05:50:57;13.80;99.90
8780;DHT22;62328;51.19929245;4.42130175;2022-10-16T05:53:24;13.80;99.90
8780;DHT22;62328;51.19929245;4.42130175;2022-10-16T05:55:52;13.80;99.90
8780;DHT22;62328;51.19929245;4.42130175;2022-10-16T05:58:20;13.80;99.90
8780;DHT22;62328;51.19929245;4.42130175;2022-10-16T06:00:53;13.80;99.90
8780;DHT22;62328;51.19929245;4.42130175;2022-10-16T06:03:20;13.70;99.90
8780;DHT22;62328;51.19929245;4.42130175;2022-10-16T06:05:47;13.70;99.90
8780;DHT22;62328;51.19929245;4.42130175;2022-10-16T06:08:14;13.70;99.90
8780;DHT22;62328;51.19929245;4.42130175;2022-10-16T06:10:41;13.70;99.90
8780;DHT22;62328;51.19929245;4.42130175;2022-10-16T06:13:09;13.80;99.90
8780;DHT22;62328;51.19929245;4.42130175;2022-10-16T06:15:37;13.80;99.90
8780;DHT22;62328;51.19929245;4.42130175;2022-10-16T06:18:07;13.80;99.90
8780;DHT22;62328;51.19929245;4.42130175;2022-10-16T06:20:34;13.80;99.90
8780;DHT22;62328;51.19929245;4.42130175;2022-10-16T06:23:01;13.70;99.90
8780;DHT22;62328;51.19929245;4.42130175;2022-10-16T06:25:31;13.80;99.90
8780;DHT22;62328;51.19929245;4.42130175;2022-10-16T06:27:58;13.90;99.90
8780;DHT22;62328;51.19929245;4.42130175;2022-10-16T06:30:25;14.00;99.90
8780;DHT22;62328;51.19929245;4.42130175;2022-10-16T06:32:53;13.90;99.90
8780;DHT22;62328;51.19929245;4.42130175;2022-10-16T06:35:19;13.90;99.90
8780;DHT22;62328;51.19929245;4.42130175;2022-10-16T06:37:46;13.90;99.90
8780;DHT22;62328;51.19929245;4.42130175;2022-10-16T06:40:13;13.80;99.90
8780;DHT22;62328;51.19929245;4.42130175;2022-10-16T06:42:40;13.80;99.90
8780;DHT22;62328;51.19929245;4.42130175;2022-10-16T06:45:08;13.80;99.90
8780;DHT22;62328;51.19929245;4.42130175;2022-10-16T06:47:35;13.80;99.90
8780;DHT22;62328;51.19929245;4.42130175;2022-10-16T06:50:04;13.80;99.90
8780;DHT22;62328;51.19929245;4.42130175;2022-10-16T06:52:32;13.80;99.90
8780;DHT22;62328;51.19929245;4.42130175;2022-10-16T06:54:59;13.80;99.90
8780;DHT22;62328;51.19929245;4.42130175;2022-10-16T06:57:26;13.80;99.90
8780;DHT22;62328;51.19929245;4.42130175;2022-10-16T06:59:53;13.90;99.90
8780;DHT22;62328;51.19929245;4.42130175;2022-10-16T07:02:19;13.90;99.90
8780;DHT22;62328;51.19929245;4.42130175;2022-10-16T07:04:46;13.80;99.90
8780;DHT22;62328;51.19929245;4.42130175;2022-10-16T07:07:15;13.90;99.90
8780;DHT22;62328;51.19929245;4.42130175;2022-10-16T07:09:41;14.00;99.90
8780;DHT22;62328;51.19929245;4.42130175;2022-10-16T07:12:08;13.90;99.90
8780;DHT22;62328;51.19929245;4.42130175;2022-10-16T07:14:35;14.00;99.90
8780;DHT22;62328;51.19929245;4.42130175;2022-10-16T07:17:02;14.00;99.90
8780;DHT22;62328;51.19929245;4.42130175;2022-10-16T07:19:29;14.00;99.90
8780;DHT22;62328;51.19929245;4.42130175;2022-10-16T07:21:56;14.00;99.90
8780;DHT22;62328;51.19929245;4.42130175;2022-10-16T07:24:24;14.00;99.90
8780;DHT22;62328;51.19929245;4.42130175;2022-10-16T07:26:51;14.00;99.90
8780;DHT22;62328;51.19929245;4.42130175;2022-10-16T07:29:19;14.00;99.90
8780;DHT22;62328;51.19929245;4.42130175;2022-10-16T07:31:47;14.10;99.90
8780;DHT22;62328;51.19929245;4.42130175;2022-10-16T07:34:16;14.10;99.90
8780;DHT22;62328;51.19929245;4.42130175;2022-10-16T07:36:43;14.10;99.90
8780;DHT22;62328;51.19929245;4.42130175;2022-10-16T07:39:11;14.20;99.90
8780;DHT22;62328;51.19929245;4.42130175;2022-10-16T07:41:39;14.20;99.90
8780;DHT22;62328;51.19929245;4.42130175;2022-10-16T07:44:06;14.30;99.90
8780;DHT22;62328;51.19929245;4.42130175;2022-10-16T07:46:33;14.30;99.90
8780;DHT22;62328;51.19929245;4.42130175;2022-10-16T07:49:01;14.30;99.90
8780;DHT22;62328;51.19929245;4.42130175;2022-10-16T07:51:28;14.40;99.90
8780;DHT22;62328;51.19929245;4.42130175;2022-10-16T07:53:55;14.40;99.90
8780;DHT22;62328;51.19929245;4.42130175;2022-10-16T07:56:22;14.40;99.90
8780;DHT22;62328;51.19929245;4.42130175;2022-10-16T07:58:51;14.40;99.90
8780;DHT22;62328;51.19929245;4.42130175;2022-10-16T08:01:18;14.60;99.90
8780;DHT22;62328;51.19929245;4.42130175;2022-10-16T08:03:47;14.50;99.90
8780;DHT22;62328;51.19929245;4.42130175;2022-10-16T08:06:14;14.60;99.90
8780;DHT22;62328;51.19929245;4.42130175;2022-10-16T08:08:41;14.70;99.90
8780;DHT22;62328;51.19929245;4.42130175;2022-10-16T08:11:08;14.70;99.90
8780;DHT22;62328;51.19929245;4.42130175;2022-10-16T08:13:35;14.70;99.90
8780;DHT22;62328;51.19929245;4.42130175;2022-10-16T08:16:04;14.80;99.90
8780;DHT22;62328;51.19929245;4.42130175;2022-10-16T08:18:33;14.80;99.90
8780;DHT22;62328;51.19929245;4.42130175;2022-10-16T08:21:01;14.80;99.90
8780;DHT22;62328;51.19929245;4.42130175;2022-10-16T08:23:29;14.90;99.90
8780;DHT22;62328;51.19929245;4.42130175;2022-10-16T08:26:02;15.00;99.90
8780;DHT22;62328;51.19929245;4.42130175;2022-10-16T08:28:29;15.00;99.90
8780;DHT22;62328;51.19929245;4.42130175;2022-10-16T08:30:56;15.10;99.90
8780;DHT22;62328;51.19929245;4.42130175;2022-10-16T08:33:32;15.10;99.90
8780;DHT22;62328;51.19929245;4.42130175;2022-10-16T08:36:00;15.10;99.90
8780;DHT22;62328;51.19929245;4.42130175;2022-10-16T08:38:27;15.20;99.90
8780;DHT22;62328;51.19929245;4.42130175;2022-10-16T08:41:00;15.30;99.90
8780;DHT22;62328;51.19929245;4.42130175;2022-10-16T08:43:42;15.30;99.90
8780;DHT22;62328;51.19929245;4.42130175;2022-10-16T08:46:25;15.30;99.90
8780;DHT22;62328;51.19929245;4.42130175;2022-10-16T08:48:59;15.30;99.90
8780;DHT22;62328;51.19929245;4.42130175;2022-10-16T08:51:28;15.40;99.90
8780;DHT22;62328;51.19929245;4.42130175;2022-10-16T08:53:57;15.40;99.90
8780;DHT22;62328;51.19929245;4.42130175;2022-10-16T08:56:25;15.50;99.90
8780;DHT22;62328;51.19929245;4.42130175;2022-10-16T08:58:53;15.60;99.90
8780;DHT22;62328;51.19929245;4.42130175;2022-10-16T09:01:22;15.60;99.90
8780;DHT22;62328;51.19929245;4.42130175;2022-10-16T09:04:13;15.70;99.90
8780;DHT22;62328;51.19929245;4.42130175;2022-10-16T09:06:47;15.70;99.90
8780;DHT22;62328;51.19929245;4.42130175;2022-10-16T09:09:33;15.80;99.90
8780;DHT22;62328;51.19929245;4.42130175;2022-10-16T09:12:08;15.90;99.90
8780;DHT22;62328;51.19929245;4.42130175;2022-10-16T09:14:52;15.90;99.90
8780;DHT22;62328;51.19929245;4.42130175;2022-10-16T09:17:42;16.00;99.90
8780;DHT22;62328;51.19929245;4.42130175;2022-10-16T09:20:27;16.00;99.90
8780;DHT22;62328;51.19929245;4.42130175;2022-10-16T09:23:08;16.10;99.90
8780;DHT22;62328;51.19929245;4.42130175;2022-10-16T09:25:39;16.20;99.90
8780;DHT22;62328;51.19929245;4.42130175;2022-10-16T09:28:08;16.20;99.90
8780;DHT22;62328;51.19929245;4.42130175;2022-10-16T09:30:35;16.30;99.90
8780;DHT22;62328;51.19929245;4.42130175;2022-10-16T09:33:04;16.40;99.90
8780;DHT22;62328;51.19929245;4.42130175;2022-10-16T09:35:36;16.40;99.90
8780;DHT22;62328;51.19929245;4.42130175;2022-10-16T09:38:04;16.50;99.90
8780;DHT22;62328;51.19929245;4.42130175;2022-10-16T09:40:33;16.50;99.90
8780;DHT22;62328;51.19929245;4.42130175;2022-10-16T09:43:07;16.50;99.90
8780;DHT22;62328;51.19929245;4.42130175;2022-10-16T09:45:39;16.60;99.90
8780;DHT22;62328;51.19929245;4.42130175;2022-10-16T09:48:11;16.70;99.90
8780;DHT22;62328;51.19929245;4.42130175;2022-10-16T09:50:39;16.80;99.90
8780;DHT22;62328;51.19929245;4.42130175;2022-10-16T09:53:10;16.90;99.90
8780;DHT22;62328;51.19929245;4.42130175;2022-10-16T09:55:48;17.00;99.90
8780;DHT22;62328;51.19929245;4.42130175;2022-10-16T09:58:15;17.10;99.90
8780;DHT22;62328;51.19929245;4.42130175;2022-10-16T10:00:49;17.30;99.90
8780;DHT22;62328;51.19929245;4.42130175;2022-10-16T10:03:30;17.40;99.90
8780;DHT22;62328;51.19929245;4.42130175;2022-10-16T10:06:03;17.60;99.90
8780;DHT22;62328;51.19929245;4.42130175;2022-10-16T10:08:31;17.90;99.90
8780;DHT22;62328;51.19929245;4.42130175;2022-10-16T10:10:58;18.10;99.90
8780;DHT22;62328;51.19929245;4.42130175;2022-10-16T10:13:26;18.40;99.90
8780;DHT22;62328;51.19929245;4.42130175;2022-10-16T10:15:54;18.50;99.90
8780;DHT22;62328;51.19929245;4.42130175;2022-10-16T10:18:22;18.50;99.90
8780;DHT22;62328;51.19929245;4.42130175;2022-10-16T10:20:58;18.40;99.90
8780;DHT22;62328;51.19929245;4.42130175;2022-10-16T10:23:28;18.30;99.90
8780;DHT22;62328;51.19929245;4.42130175;2022-10-16T10:25:59;18.10;99.90
8780;DHT22;62328;51.19929245;4.42130175;2022-10-16T10:28:41;18.10;99.90
8780;DHT22;62328;51.19929245;4.42130175;2022-10-16T10:31:14;18.10;99.90
8780;DHT22;62328;51.19929245;4.42130175;2022-10-16T10:33:46;18.10;99.90
8780;DHT22;62328;51.19929245;4.42130175;2022-10-16T10:36:25;18.00;99.90
8780;DHT22;62328;51.19929245;4.42130175;2022-10-16T10:38:58;17.90;99.90
8780;DHT22;62328;51.19929245;4.42130175;2022-10-16T10:42:01;18.00;99.90
8780;DHT22;62328;51.19929245;4.42130175;2022-10-16T10:44:42;18.00;99.90
8780;DHT22;62328;51.19929245;4.42130175;2022-10-16T10:47:24;18.00;99.90
8780;DHT22;62328;51.19929245;4.42130175;2022-10-16T10:50:02;17.80;99.90
8780;DHT22;62328;51.19929245;4.42130175;2022-10-16T10:52:37;17.90;99.90
8780;DHT22;62328;51.19929245;4.42130175;2022-10-16T10:55:16;17.80;99.90
8780;DHT22;62328;51.19929245;4.42130175;2022-10-16T10:58:01;17.90;99.90
8780;DHT22;62328;51.19929245;4.42130175;2022-10-16T11:00:40;17.90;99.90
8780;DHT22;62328;51.19929245;4.42130175;2022-10-16T11:03:17;17.90;99.90
8780;DHT22;62328;51.19929245;4.42130175;2022-10-16T11:05:50;17.70;99.90
8780;DHT22;62328;51.19929245;4.42130175;2022-10-16T11:08:20;17.70;99.90
8780;DHT22;62328;51.19929245;4.42130175;2022-10-16T11:10:54;17.60;99.90
8780;DHT22;62328;51.19929245;4.42130175;2022-10-16T11:13:28;17.60;99.90
8780;DHT22;62328;51.19929245;4.42130175;2022-10-16T11:15:59;17.60;99.90
8780;DHT22;62328;51.19929245;4.42130175;2022-10-16T11:18:32;17.60;99.90
8780;DHT22;62328;51.19929245;4.42130175;2022-10-16T11:21:04;17.50;99.90
8780;DHT22;62328;51.19929245;4.42130175;2022-10-16T11:23:38;17.40;99.90
8780;DHT22;62328;51.19929245;4.42130175;2022-10-16T11:26:11;17.30;99.90
8780;DHT22;62328;51.19929245;4.42130175;2022-10-16T11:28:42;17.30;99.90
8780;DHT22;62328;51.19929245;4.42130175;2022-10-16T11:31:17;17.30;99.90
8780;DHT22;62328;51.19929245;4.42130175;2022-10-16T11:33:51;17.30;99.90
8780;DHT22;62328;51.19929245;4.42130175;2022-10-16T11:36:23;17.20;99.90
8780;DHT22;62328;51.19929245;4.42130175;2022-10-16T11:38:57;17.20;99.90
8780;DHT22;62328;51.19929245;4.42130175;2022-10-16T11:41:32;17.20;99.90
8780;DHT22;62328;51.19929245;4.42130175;2022-10-16T11:44:09;17.30;99.90
8780;DHT22;62328;51.19929245;4.42130175;2022-10-16T11:46:40;17.30;99.90
8780;DHT22;62328;51.19929245;4.42130175;2022-10-16T11:49:12;17.50;99.90
8780;DHT22;62328;51.19929245;4.42130175;2022-10-16T11:51:43;17.60;99.90
8780;DHT22;62328;51.19929245;4.42130175;2022-10-16T11:54:18;17.60;99.90
8780;DHT22;62328;51.19929245;4.42130175;2022-10-16T11:56:51;17.50;99.90
8780;DHT22;62328;51.19929245;4.42130175;2022-10-16T11:59:23;17.50;99.90
8780;DHT22;62328;51.19929245;4.42130175;2022-10-16T12:01:58;17.50;99.90
8780;DHT22;62328;51.19929245;4.42130175;2022-10-16T12:04:33;17.50;99.90
8780;DHT22;62328;51.19929245;4.42130175;2022-10-16T12:07:05;17.60;99.90
8780;DHT22;62328;51.19929245;4.42130175;2022-10-16T12:09:36;17.60;99.90
8780;DHT22;62328;51.19929245;4.42130175;2022-10-16T12:12:24;17.70;99.90
8780;DHT22;62328;51.19929245;4.42130175;2022-10-16T12:15:00;17.70;99.90
8780;DHT22;62328;51.19929245;4.42130175;2022-10-16T12:17:34;17.70;99.90
8780;DHT22;62328;51.19929245;4.42130175;2022-10-16T12:20:20;17.60;99.90
8780;DHT22;62328;51.19929245;4.42130175;2022-10-16T12:22:52;17.40;99.90
8780;DHT22;62328;51.19929245;4.42130175;2022-10-16T12:25:22;17.50;99.90
8780;DHT22;62328;51.19929245;4.42130175;2022-10-16T12:28:00;17.70;99.90
8780;DHT22;62328;51.19929245;4.42130175;2022-10-16T12:30:30;17.70;99.90
8780;DHT22;62328;51.19929245;4.42130175;2022-10-16T12:32:58;17.70;99.90
8780;DHT22;62328;51.19929245;4.42130175;2022-10-16T12:35:29;17.60;99.90
8780;DHT22;62328;51.19929245;4.42130175;2022-10-16T12:38:06;17.50;99.90
8780;DHT22;62328;51.19929245;4.42130175;2022-10-16T12:40:35;17.40;99.90
8780;DHT22;62328;51.19929245;4.42130175;2022-10-16T12:43:26;17.40;99.90
8780;DHT22;62328;51.19929245;4.42130175;2022-10-16T12:46:02;17.50;99.90
8780;DHT22;62328;51.19929245;4.42130175;2022-10-16T12:48:29;17.50;99.90
8780;DHT22;62328;51.19929245;4.42130175;2022-10-16T12:50:56;17.70;99.90
8780;DHT22;62328;51.19929245;4.42130175;2022-10-16T12:53:25;17.80;99.90
8780;DHT22;62328;51.19929245;4.42130175;2022-10-16T12:56:04;17.80;99.90
8780;DHT22;62328;51.19929245;4.42130175;2022-10-16T12:58:51;18.00;99.90
8780;DHT22;62328;51.19929245;4.42130175;2022-10-16T13:01:42;18.10;99.90
8780;DHT22;62328;51.19929245;4.42130175;2022-10-16T13:04:33;18.20;99.90
8780;DHT22;62328;51.19929245;4.42130175;2022-10-16T13:07:14;18.30;99.90
8780;DHT22;62328;51.19929245;4.42130175;2022-10-16T13:09:51;18.40;99.90
8780;DHT22;62328;51.19929245;4.42130175;2022-10-16T13:12:41;18.60;99.90
8780;DHT22;62328;51.19929245;4.42130175;2022-10-16T13:15:27;18.70;99.90
8780;DHT22;62328;51.19929245;4.42130175;2022-10-16T13:18:02;18.80;99.90
8780;DHT22;62328;51.19929245;4.42130175;2022-10-16T13:20:46;18.80;99.90
8780;DHT22;62328;51.19929245;4.42130175;2022-10-16T13:23:23;18.90;99.90
8780;DHT22;62328;51.19929245;4.42130175;2022-10-16T13:26:05;18.90;99.90
8780;DHT22;62328;51.19929245;4.42130175;2022-10-16T13:28:35;18.90;99.90
8780;DHT22;62328;51.19929245;4.42130175;2022-10-16T13:31:05;18.90;99.90
8780;DHT22;62328;51.19929245;4.42130175;2022-10-16T13:33:40;18.80;99.90
8780;DHT22;62328;51.19929245;4.42130175;2022-10-16T13:36:20;18.80;99.90
8780;DHT22;62328;51.19929245;4.42130175;2022-10-16T13:38:47;18.60;99.90
8780;DHT22;62328;51.19929245;4.42130175;2022-10-16T13:41:15;18.60;99.90
8780;DHT22;62328;51.19929245;4.42130175;2022-10-16T13:43:44;18.60;99.90
8780;DHT22;62328;51.19929245;4.42130175;2022-10-16T13:46:15;18.50;99.90
8780;DHT22;62328;51.19929245;4.42130175;2022-10-16T13:48:42;18.50;99.90
8780;DHT22;62328;51.19929245;4.42130175;2022-10-16T13:51:13;18.50;99.90
8780;DHT22;62328;51.19929245;4.42130175;2022-10-16T13:53:41;18.50;99.90